Berlin, NH (03570)

2:52 PM EST on February 06, 2016 (GMT -0500)
Berlin Norwegian village | | Change Station
CLOSE
Current Station
Personal Weather Station
Location: Berlin, NH
Elevation: 1099 ft
Nearby Weather Stations

Elev 1099 ft 44.48 °N, 71.17 °W | Updated 4 seconds ago

Mostly Cloudy
Mostly Cloudy
43.5 °F
Feels Like 44 °F
N
1.6
Wind Variable Wind from SW
Gusts 3.1 mph

Today
High -- | Low -- °F
--% Chance of Precip.
Yesterday
High -- | Low -- °F
Precip. -- in
Pressure 30.14 in
Visibility 10.0 miles
Clouds Scattered Clouds 4400 ft
Windchill 44 °F
Dew Point 18 °F
Humidity 36%
Rainfall 0.00 in
Snow Depth Not available.
6:57 AM 5:00 PM
Waning Crescent, 4% visible
METAR KBML 061852Z AUTO 21011G18KT 190V250 10SM SCT044 01/M07 A3009 RMK AO2 SLP206 T00111072
Pressure 30.14 in
Visibility 10.0 miles
Clouds Scattered Clouds 4400 ft
Windchill 44 °F
Dew Point 18 °F
Humidity 36%
Rainfall 0.00 in
Snow Depth Not available.
6:57 AM 5:00 PM
Waning Crescent, 4% visible
METAR KBML 061852Z AUTO 21011G18KT 190V250 10SM SCT044 01/M07 A3009 RMK AO2 SLP206 T00111072

10-Day Weather Forecast

Almanac

Astronomy

Feb. 06, 2016 Rise Set
Actual Time
Civil Twilight
Nautical Twilight
Astronomical Twilight
Moon
Length of Visible Light
Length of Day
Tomorrow will be .
, % of the Moon is Illuminated

Today's Extremes

State Highs State Lows

Community

WunderPhotos

Upload Photos

1,891,037 photos uploaded!

WunderBlog® & News

Nearby

Air Quality

  Air Quality AQ Index Pollutant
Not available.

Snow Depth

Station Depth Elevation

Earthquake Activity

City Distance Mag. Time & Date
Minimum magnitude displayed is 2.5.

Coastal Water Temperatures

Place Temperature

Stations

Nearby Weather Stations

Station Location Temp. Windchill Dew Point Humidity Wind Precip. Elev Updated Type
                   

Watches & Warnings

There are currently no watches in effect.